createdAt,value
2023-03-29T00:00:49.642Z,4.90
2023-03-29T00:03:17.249Z,2.45
2023-03-29T00:05:44.735Z,5.05
2023-03-29T00:08:14.211Z,2.10
2023-03-29T00:10:41.887Z,3.33
2023-03-29T00:13:08.722Z,2.92
2023-03-29T00:15:35.466Z,3.40
2023-03-29T00:18:01.827Z,3.55
2023-03-29T00:20:28.780Z,4.18
2023-03-29T00:22:55.262Z,2.13
2023-03-29T00:25:21.588Z,4.53
2023-03-29T00:27:47.957Z,2.60
2023-03-29T00:30:15.167Z,2.10
2023-03-29T00:32:41.928Z,4.22
2023-03-29T00:35:09.046Z,2.60
2023-03-29T00:37:35.630Z,3.58
2023-03-29T00:40:02.271Z,2.17
2023-03-29T00:42:28.744Z,2.28
2023-03-29T00:45:21.211Z,6.65
2023-03-29T00:48:02.479Z,2.07
2023-03-29T00:50:48.282Z,1.90
2023-03-29T00:53:23.281Z,5.85
2023-03-29T00:56:02.927Z,2.33
2023-03-29T00:58:43.750Z,4.43
2023-03-29T01:01:16.616Z,1.80
2023-03-29T01:03:50.173Z,3.25
2023-03-29T01:06:21.640Z,3.17
2023-03-29T01:08:52.595Z,3.72
2023-03-29T01:11:25.135Z,2.35
2023-03-29T01:14:15.578Z,4.53
2023-03-29T01:16:42.343Z,3.97
2023-03-29T01:19:13.642Z,4.45
2023-03-29T01:21:46.026Z,2.83
2023-03-29T01:24:30.440Z,3.35
2023-03-29T01:27:15.611Z,1.97
2023-03-29T01:29:49.954Z,2.35
2023-03-29T01:32:19.574Z,2.47
2023-03-29T01:34:58.505Z,3.88
2023-03-29T01:37:30.413Z,5.82
2023-03-29T01:39:56.813Z,3.23
2023-03-29T01:43:04.357Z,4.15
2023-03-29T01:45:37.827Z,2.22
2023-03-29T01:48:14.579Z,5.18
2023-03-29T01:50:54.076Z,5.30
2023-03-29T01:53:24.609Z,2.73
2023-03-29T01:56:04.423Z,6.13
2023-03-29T01:58:35.713Z,6.35
2023-03-29T02:01:09.728Z,4.35
2023-03-29T02:03:42.415Z,6.47
2023-03-29T02:06:12.692Z,2.67
2023-03-29T02:08:41.429Z,5.18
2023-03-29T02:11:08.955Z,3.10
2023-03-29T02:13:36.245Z,3.00
2023-03-29T02:16:12.379Z,3.63
2023-03-29T02:18:42.402Z,4.07
2023-03-29T02:21:33.613Z,3.65
2023-03-29T02:24:03.255Z,2.13
2023-03-29T02:26:29.640Z,4.10
2023-03-29T02:28:56.131Z,5.18
2023-03-29T02:31:29.613Z,5.60
2023-03-29T02:34:08.732Z,2.58
2023-03-29T02:36:49.755Z,4.97
2023-03-29T02:39:18.092Z,5.72
2023-03-29T02:41:49.212Z,3.33
2023-03-29T02:44:20.342Z,3.77
2023-03-29T02:46:50.687Z,3.47
2023-03-29T02:49:17.079Z,7.88
2023-03-29T02:51:45.035Z,2.45
2023-03-29T02:54:17.742Z,2.72
2023-03-29T02:56:47.362Z,4.77
2023-03-29T02:59:14.422Z,3.72
2023-03-29T03:01:42.710Z,3.85
2023-03-29T03:04:10.148Z,3.97
2023-03-29T03:06:37.764Z,4.30
2023-03-29T03:09:05.812Z,3.73
2023-03-29T03:11:33.051Z,3.67
2023-03-29T03:13:59.622Z,4.95
2023-03-29T03:16:26.329Z,6.32
2023-03-29T03:18:53.829Z,4.28
2023-03-29T03:21:21.002Z,2.60
2023-03-29T03:23:48.380Z,4.80
2023-03-29T03:26:16.274Z,2.63
2023-03-29T03:28:43.077Z,2.30
2023-03-29T03:31:09.471Z,3.13
2023-03-29T03:33:35.838Z,3.00
2023-03-29T03:36:06.209Z,5.50
2023-03-29T03:38:33.185Z,2.55
2023-03-29T03:41:01.190Z,2.75
2023-03-29T03:43:28.587Z,3.97
2023-03-29T03:45:55.641Z,5.67
2023-03-29T03:48:23.813Z,4.38
2023-03-29T03:50:55.375Z,3.78
2023-03-29T03:53:23.451Z,4.28
2023-03-29T03:55:51.167Z,4.85
2023-03-29T03:58:18.095Z,4.53
2023-03-29T04:00:47.139Z,4.93
2023-03-29T04:03:14.137Z,5.65
2023-03-29T04:05:42.639Z,2.75
2023-03-29T04:08:09.152Z,3.25
2023-03-29T04:10:35.583Z,4.13
2023-03-29T04:13:02.525Z,3.75
2023-03-29T04:15:29.352Z,3.03
2023-03-29T04:17:56.727Z,5.85
2023-03-29T04:20:24.160Z,4.60
2023-03-29T04:22:51.166Z,4.83
2023-03-29T04:25:17.944Z,4.43
2023-03-29T04:27:45.313Z,4.22
2023-03-29T04:30:12.950Z,5.78
2023-03-29T04:32:39.334Z,3.95
2023-03-29T04:35:06.527Z,3.93
2023-03-29T04:37:33.122Z,4.90
2023-03-29T04:40:02.424Z,5.00
2023-03-29T04:42:29.296Z,6.68
2023-03-29T04:44:55.713Z,6.20
2023-03-29T04:47:22.122Z,2.63
2023-03-29T04:49:48.514Z,4.03
2023-03-29T04:52:14.824Z,3.50
2023-03-29T04:54:41.162Z,5.55
2023-03-29T04:57:08.602Z,6.40
2023-03-29T04:59:35.090Z,2.80
2023-03-29T05:02:03.035Z,7.50
2023-03-29T05:04:29.654Z,4.85
2023-03-29T05:06:57.046Z,3.10
2023-03-29T05:09:24.658Z,3.63
2023-03-29T05:11:51.441Z,5.30
2023-03-29T05:14:18.002Z,4.60
2023-03-29T05:16:44.515Z,2.17
2023-03-29T05:19:11.352Z,4.40
2023-03-29T05:21:38.463Z,4.10
2023-03-29T05:24:05.917Z,3.20
2023-03-29T05:26:32.244Z,4.97
2023-03-29T05:28:58.570Z,4.93
2023-03-29T05:31:24.996Z,5.20
2023-03-29T05:33:51.874Z,7.35
2023-03-29T05:36:19.219Z,3.30
2023-03-29T05:38:46.781Z,2.95
2023-03-29T05:41:14.546Z,3.90
2023-03-29T05:43:40.902Z,4.45
2023-03-29T05:46:07.633Z,4.95
2023-03-29T05:48:34.121Z,4.63
2023-03-29T05:51:00.651Z,6.13
2023-03-29T05:53:28.610Z,4.13
2023-03-29T05:55:56.680Z,5.28
2023-03-29T05:58:23.286Z,6.43
2023-03-29T06:00:50.023Z,6.63
2023-03-29T06:03:21.689Z,5.55
2023-03-29T06:05:49.984Z,3.83
2023-03-29T06:08:16.858Z,4.63
2023-03-29T06:10:43.709Z,5.55
2023-03-29T06:13:10.788Z,3.87
2023-03-29T06:15:37.427Z,8.75
2023-03-29T06:18:04.531Z,5.43
2023-03-29T06:20:30.988Z,4.55
2023-03-29T06:22:58.409Z,4.50
2023-03-29T06:25:24.932Z,4.50
2023-03-29T06:27:52.123Z,5.03
2023-03-29T06:30:19.256Z,5.13
2023-03-29T06:32:46.105Z,3.22
2023-03-29T06:35:12.457Z,3.60
2023-03-29T06:37:40.921Z,3.70
2023-03-29T06:40:09.338Z,4.57
2023-03-29T06:42:35.783Z,7.32
2023-03-29T06:45:02.554Z,5.97
2023-03-29T06:47:30.879Z,4.45
2023-03-29T06:49:57.329Z,2.80
2023-03-29T06:52:23.681Z,6.25
2023-03-29T06:54:50.483Z,4.47
2023-03-29T06:57:17.689Z,5.15
2023-03-29T06:59:44.191Z,8.00
2023-03-29T07:02:12.368Z,4.00
2023-03-29T07:04:41.620Z,7.20
2023-03-29T07:07:19.790Z,4.82
2023-03-29T07:09:53.921Z,5.05
2023-03-29T07:12:22.412Z,8.70
2023-03-29T07:14:48.806Z,7.23
2023-03-29T07:17:16.537Z,4.05
2023-03-29T07:19:43.423Z,6.75
2023-03-29T07:22:09.868Z,6.50
2023-03-29T07:24:36.174Z,7.38
2023-03-29T07:27:04.676Z,8.03
2023-03-29T07:29:32.002Z,5.38
2023-03-29T07:31:58.360Z,5.45
2023-03-29T07:34:24.801Z,6.13
2023-03-29T07:36:51.570Z,8.57
2023-03-29T07:39:17.912Z,6.73
2023-03-29T07:41:44.259Z,4.53
2023-03-29T07:44:10.570Z,7.43
2023-03-29T07:46:37.193Z,5.07
2023-03-29T07:49:04.089Z,6.50
2023-03-29T07:51:30.983Z,6.77
2023-03-29T07:53:57.299Z,9.43
2023-03-29T07:56:24.695Z,10.32
2023-03-29T07:58:51.583Z,13.52
2023-03-29T08:01:19.816Z,4.60
2023-03-29T08:03:46.461Z,6.73
2023-03-29T08:06:12.804Z,6.00
2023-03-29T08:08:39.155Z,6.18
2023-03-29T08:11:08.749Z,6.35
2023-03-29T08:13:35.253Z,10.65
2023-03-29T08:16:01.858Z,4.93
2023-03-29T08:18:28.255Z,5.55
2023-03-29T08:20:54.588Z,11.70
2023-03-29T08:23:21.101Z,8.23
2023-03-29T08:25:47.437Z,10.23
2023-03-29T08:28:14.850Z,9.10
2023-03-29T08:30:41.926Z,6.68
2023-03-29T08:33:08.771Z,8.20
2023-03-29T08:35:35.597Z,7.93
2023-03-29T08:38:01.908Z,11.95
2023-03-29T08:40:30.236Z,11.20
2023-03-29T08:43:18.780Z,8.60
2023-03-29T08:46:08.584Z,10.07
2023-03-29T08:48:43.992Z,9.73
2023-03-29T08:51:24.416Z,6.97
2023-03-29T08:53:56.421Z,11.77
2023-03-29T08:56:27.858Z,8.50
2023-03-29T08:58:55.895Z,9.25
2023-03-29T09:01:23.151Z,9.70
2023-03-29T09:03:53.773Z,12.10
2023-03-29T09:06:21.828Z,7.20
2023-03-29T09:08:50.772Z,7.43
2023-03-29T09:11:30.827Z,8.70
2023-03-29T09:14:25.012Z,9.55
2023-03-29T09:16:51.553Z,11.15
2023-03-29T09:19:44.078Z,9.00
2023-03-29T09:22:26.519Z,8.63
2023-03-29T09:25:05.720Z,10.98
2023-03-29T09:27:57.967Z,11.57
2023-03-29T09:30:30.668Z,13.48
2023-03-29T09:33:16.424Z,11.23
2023-03-29T09:35:57.349Z,8.55
2023-03-29T09:38:23.742Z,10.27
2023-03-29T09:40:53.901Z,10.77
2023-03-29T09:43:32.553Z,11.10
2023-03-29T09:46:11.016Z,7.30
2023-03-29T09:48:41.154Z,9.20
2023-03-29T09:51:09.016Z,13.60
2023-03-29T09:53:35.352Z,11.00
2023-03-29T09:56:02.197Z,8.38
2023-03-29T09:58:31.629Z,8.57
2023-03-29T10:01:00.724Z,12.57
2023-03-29T10:03:30.166Z,10.23
2023-03-29T10:05:59.962Z,10.73
2023-03-29T10:08:28.975Z,9.80
2023-03-29T10:10:59.909Z,9.87
2023-03-29T10:13:32.819Z,12.50
2023-03-29T10:16:07.299Z,14.40
2023-03-29T10:18:40.609Z,10.57
2023-03-29T10:21:07.436Z,12.43
2023-03-29T10:23:36.853Z,9.03
2023-03-29T10:26:07.723Z,9.40
2023-03-29T10:28:36.583Z,7.72
2023-03-29T10:31:06.009Z,12.13
2023-03-29T10:33:34.667Z,8.20
2023-03-29T10:36:04.901Z,12.37
2023-03-29T10:38:31.915Z,10.98
2023-03-29T10:41:12.581Z,13.00
2023-03-29T10:43:43.649Z,10.60
2023-03-29T10:46:19.922Z,13.27
2023-03-29T10:48:49.283Z,15.00
2023-03-29T10:51:18.254Z,15.10
2023-03-29T10:53:44.693Z,11.30
2023-03-29T10:56:19.896Z,19.23
2023-03-29T10:59:14.465Z,13.32
2023-03-29T11:02:02.536Z,12.03
2023-03-29T11:04:52.332Z,15.23
2023-03-29T11:07:33.024Z,14.27
2023-03-29T11:10:04.549Z,11.93
2023-03-29T11:12:39.611Z,13.27
2023-03-29T11:15:40.622Z,11.00
2023-03-29T11:18:26.023Z,13.60
2023-03-29T11:21:26.507Z,12.95
2023-03-29T11:23:58.521Z,14.68
2023-03-29T11:26:30.574Z,15.35
2023-03-29T11:29:05.678Z,10.40
2023-03-29T11:31:51.366Z,12.45
2023-03-29T11:34:46.919Z,9.65
2023-03-29T11:37:19.337Z,11.55
2023-03-29T11:39:54.414Z,8.55
2023-03-29T11:42:26.684Z,12.90
2023-03-29T11:44:56.004Z,11.43
2023-03-29T11:47:26.637Z,11.27
2023-03-29T11:49:57.858Z,9.70
2023-03-29T11:52:37.813Z,14.07
2023-03-29T11:55:28.439Z,10.10
2023-03-29T11:58:17.464Z,12.75
2023-03-29T12:00:46.221Z,11.98
2023-03-29T12:03:38.441Z,14.25
2023-03-29T12:06:07.625Z,16.60
2023-03-29T12:09:02.314Z,14.63
2023-03-29T12:11:46.198Z,13.30
2023-03-29T12:14:27.348Z,12.73
2023-03-29T12:17:01.978Z,14.20
2023-03-29T12:19:39.759Z,13.95
2023-03-29T12:22:08.915Z,13.13
2023-03-29T12:24:41.133Z,14.98
2023-03-29T12:27:22.771Z,16.88
2023-03-29T12:30:07.666Z,18.30
2023-03-29T12:32:37.088Z,17.30
2023-03-29T12:35:34.918Z,17.23
2023-03-29T12:38:14.025Z,19.25
2023-03-29T12:40:43.962Z,17.45
2023-03-29T12:43:32.934Z,20.17
2023-03-29T12:46:08.854Z,16.85
2023-03-29T12:48:45.147Z,20.70
2023-03-29T12:51:25.387Z,24.20
2023-03-29T12:54:07.373Z,21.45
2023-03-29T12:56:56.079Z,20.83
2023-03-29T12:59:43.310Z,27.90
2023-03-29T13:02:13.801Z,27.87
2023-03-29T13:04:47.006Z,25.92
2023-03-29T13:07:22.490Z,20.30
2023-03-29T13:10:08.121Z,16.02
2023-03-29T13:12:34.391Z,17.80
2023-03-29T13:15:25.153Z,21.00
2023-03-29T13:18:16.095Z,16.35
2023-03-29T13:20:51.061Z,18.63
2023-03-29T13:23:44.244Z,18.27
2023-03-29T13:26:32.059Z,17.33
2023-03-29T13:29:28.129Z,15.50
2023-03-29T13:32:27.140Z,17.88
2023-03-29T13:35:06.188Z,16.85
2023-03-29T13:37:53.263Z,19.00
2023-03-29T13:40:44.226Z,15.05
2023-03-29T13:43:21.731Z,16.17
2023-03-29T13:46:04.272Z,17.65
2023-03-29T13:48:46.745Z,18.95
2023-03-29T13:51:13.044Z,18.02
2023-03-29T13:53:54.735Z,18.70
2023-03-29T13:56:34.137Z,14.73
2023-03-29T13:59:15.467Z,15.40
2023-03-29T14:01:48.438Z,14.57
2023-03-29T14:04:21.195Z,15.18
2023-03-29T14:06:53.045Z,15.02
2023-03-29T14:09:30.717Z,13.83
2023-03-29T14:12:00.081Z,15.25
2023-03-29T14:14:30.190Z,15.18
2023-03-29T14:16:57.232Z,16.30
2023-03-29T14:19:36.032Z,16.52
2023-03-29T14:22:08.242Z,13.90
2023-03-29T14:24:41.371Z,12.63
2023-03-29T14:27:10.100Z,17.55
2023-03-29T14:29:36.613Z,14.90
2023-03-29T14:32:18.064Z,13.77
2023-03-29T14:34:48.165Z,16.67
2023-03-29T14:37:18.792Z,14.15
2023-03-29T14:39:45.693Z,12.88
2023-03-29T14:42:17.419Z,12.05
2023-03-29T14:44:44.854Z,14.15
2023-03-29T14:47:17.792Z,13.30
2023-03-29T14:49:45.014Z,12.45
2023-03-29T14:52:13.209Z,12.15
2023-03-29T14:54:42.895Z,11.75
2023-03-29T14:57:16.416Z,9.77
2023-03-29T14:59:43.299Z,10.67
2023-03-29T15:02:29.498Z,11.10
2023-03-29T15:05:07.556Z,10.23
2023-03-29T15:07:36.720Z,8.48
2023-03-29T15:10:06.237Z,10.10
2023-03-29T15:12:33.616Z,10.23
2023-03-29T15:15:00.940Z,11.95
2023-03-29T15:17:50.242Z,8.00
2023-03-29T15:20:41.467Z,12.35
2023-03-29T15:23:16.861Z,10.10
2023-03-29T15:25:49.084Z,12.37
2023-03-29T15:28:31.067Z,7.50
2023-03-29T15:31:12.679Z,7.57
2023-03-29T15:33:40.968Z,10.77
2023-03-29T15:36:12.998Z,9.40
2023-03-29T15:38:44.769Z,6.47
2023-03-29T15:41:13.679Z,6.47
2023-03-29T15:43:41.192Z,7.40
2023-03-29T15:46:08.123Z,4.93
2023-03-29T15:48:34.783Z,7.38
2023-03-29T15:51:04.816Z,5.93
2023-03-29T15:53:32.940Z,8.00
2023-03-29T15:56:02.509Z,7.70
2023-03-29T15:58:32.326Z,5.20
2023-03-29T16:01:11.002Z,6.88
2023-03-29T16:03:38.642Z,6.73
2023-03-29T16:06:06.030Z,7.32
2023-03-29T16:08:32.421Z,6.68
2023-03-29T16:10:58.826Z,6.40
2023-03-29T16:13:25.144Z,4.88
2023-03-29T16:15:51.450Z,5.93
2023-03-29T16:18:17.815Z,9.15
2023-03-29T16:20:44.177Z,4.93
2023-03-29T16:23:11.455Z,4.93
2023-03-29T16:25:39.810Z,7.00
2023-03-29T16:28:08.000Z,5.43
2023-03-29T16:30:35.925Z,5.70
2023-03-29T16:33:06.195Z,5.43
2023-03-29T16:35:35.039Z,6.55
2023-03-29T16:38:01.448Z,9.70
2023-03-29T16:40:27.929Z,4.57
2023-03-29T16:42:54.423Z,5.13
2023-03-29T16:45:20.808Z,4.93
2023-03-29T16:47:47.468Z,5.22
2023-03-29T16:50:19.661Z,7.93
2023-03-29T16:52:48.399Z,7.50
2023-03-29T16:55:18.736Z,6.90
2023-03-29T16:57:46.655Z,5.45
2023-03-29T17:00:15.911Z,4.53
2023-03-29T17:02:46.066Z,4.03
2023-03-29T17:05:12.702Z,7.83
2023-03-29T17:07:39.661Z,6.25
2023-03-29T17:10:08.095Z,5.50
2023-03-29T17:12:34.762Z,3.90
2023-03-29T17:15:01.098Z,5.88
2023-03-29T17:17:27.596Z,5.23
2023-03-29T17:19:56.085Z,4.22
2023-03-29T17:22:23.592Z,4.50
2023-03-29T17:24:50.118Z,9.60
2023-03-29T17:27:16.618Z,7.00
2023-03-29T17:29:42.990Z,7.17
2023-03-29T17:32:09.303Z,5.38
2023-03-29T17:34:35.684Z,6.82
2023-03-29T17:37:03.522Z,6.90
2023-03-29T17:39:30.646Z,5.95
2023-03-29T17:41:56.991Z,6.47
2023-03-29T17:44:23.352Z,4.72
2023-03-29T17:46:49.753Z,7.05
2023-03-29T17:49:16.113Z,4.93
2023-03-29T17:51:42.546Z,6.97
2023-03-29T17:54:08.901Z,5.57
2023-03-29T17:56:35.445Z,6.28
2023-03-29T17:59:02.017Z,7.10
2023-03-29T18:01:28.499Z,6.65
2023-03-29T18:03:54.917Z,5.80
2023-03-29T18:06:21.348Z,7.73
2023-03-29T18:08:47.890Z,9.95
2023-03-29T18:11:22.264Z,6.57
2023-03-29T18:13:50.439Z,6.30
2023-03-29T18:16:17.357Z,6.22
2023-03-29T18:18:43.812Z,5.93
2023-03-29T18:21:10.977Z,8.75
2023-03-29T18:23:39.807Z,7.25
2023-03-29T18:26:07.409Z,6.32
2023-03-29T18:28:35.014Z,6.68
2023-03-29T18:31:01.520Z,7.07
2023-03-29T18:33:30.120Z,7.47
2023-03-29T18:35:56.498Z,6.30
2023-03-29T18:38:22.916Z,7.78
2023-03-29T18:40:50.544Z,6.57
2023-03-29T18:43:16.887Z,5.60
2023-03-29T18:45:44.537Z,6.38
2023-03-29T18:48:11.081Z,7.82
2023-03-29T18:50:38.690Z,5.57
2023-03-29T18:53:05.070Z,5.68
2023-03-29T18:55:31.460Z,9.70
2023-03-29T18:57:57.770Z,9.25
2023-03-29T19:00:24.318Z,9.40
2023-03-29T19:02:50.759Z,6.68
2023-03-29T19:05:17.552Z,7.53
2023-03-29T19:07:44.046Z,6.50
2023-03-29T19:10:11.990Z,9.95
2023-03-29T19:12:38.479Z,7.28
2023-03-29T19:15:05.419Z,6.60
2023-03-29T19:17:31.996Z,4.50
2023-03-29T19:19:58.462Z,5.23
2023-03-29T19:22:24.870Z,7.18
2023-03-29T19:24:51.281Z,4.18
2023-03-29T19:27:18.353Z,7.20
2023-03-29T19:29:44.667Z,6.65
2023-03-29T19:32:11.169Z,6.10
2023-03-29T19:34:37.509Z,7.05
2023-03-29T19:37:03.902Z,6.28
2023-03-29T19:39:30.404Z,9.18
2023-03-29T19:41:56.752Z,7.22
2023-03-29T19:44:26.014Z,5.17
2023-03-29T19:46:52.443Z,4.22
2023-03-29T19:49:18.867Z,6.70
2023-03-29T19:51:45.464Z,7.82
2023-03-29T19:54:14.593Z,4.22
2023-03-29T19:56:42.581Z,5.97
2023-03-29T19:59:11.099Z,4.03
2023-03-29T20:01:39.461Z,5.25
2023-03-29T20:04:06.216Z,5.80
2023-03-29T20:06:32.616Z,6.07
2023-03-29T20:08:59.278Z,5.97
2023-03-29T20:11:25.994Z,5.72
2023-03-29T20:13:52.368Z,5.70
2023-03-29T20:16:19.393Z,4.78
2023-03-29T20:18:46.305Z,5.13
2023-03-29T20:21:16.217Z,6.03
2023-03-29T20:23:42.756Z,7.35
2023-03-29T20:26:09.100Z,7.95
2023-03-29T20:28:37.438Z,8.68
2023-03-29T20:31:06.350Z,6.72
2023-03-29T20:33:33.086Z,6.27
2023-03-29T20:35:59.640Z,7.43
2023-03-29T20:38:26.149Z,9.50
2023-03-29T20:40:53.466Z,5.78
2023-03-29T20:43:20.092Z,6.15
2023-03-29T20:45:53.295Z,7.07
2023-03-29T20:48:22.894Z,8.48
2023-03-29T20:50:49.813Z,8.23
2023-03-29T20:53:16.349Z,5.70
2023-03-29T20:55:42.699Z,4.82
2023-03-29T20:58:09.660Z,7.00
2023-03-29T21:00:37.537Z,8.65
2023-03-29T21:03:04.107Z,7.45
2023-03-29T21:05:33.092Z,6.93
2023-03-29T21:07:59.915Z,7.07
2023-03-29T21:10:27.359Z,5.53
2023-03-29T21:13:00.551Z,5.28
2023-03-29T21:15:29.273Z,6.60
2023-03-29T21:17:55.806Z,6.57
2023-03-29T21:20:22.303Z,5.50
2023-03-29T21:22:48.606Z,7.20
2023-03-29T21:25:15.752Z,4.18
2023-03-29T21:27:42.147Z,4.53
2023-03-29T21:30:09.256Z,6.25
2023-03-29T21:32:36.028Z,5.45
2023-03-29T21:35:02.528Z,7.50
2023-03-29T21:37:28.932Z,7.05
2023-03-29T21:39:55.242Z,7.00
2023-03-29T21:42:21.609Z,7.78
2023-03-29T21:44:47.942Z,5.35
2023-03-29T21:47:14.286Z,6.50
2023-03-29T21:49:40.778Z,5.90
2023-03-29T21:52:07.387Z,7.07
2023-03-29T21:54:33.871Z,8.63
2023-03-29T21:57:00.363Z,5.28
2023-03-29T21:59:27.790Z,5.80
2023-03-29T22:01:54.131Z,7.57
2023-03-29T22:04:35.326Z,4.85
2023-03-29T22:07:03.397Z,5.22
2023-03-29T22:09:29.932Z,4.35
2023-03-29T22:11:56.788Z,7.13
2023-03-29T22:14:23.118Z,6.68
2023-03-29T22:16:49.496Z,4.32
2023-03-29T22:19:15.866Z,7.45
2023-03-29T22:21:42.389Z,11.27
2023-03-29T22:24:08.802Z,8.23
2023-03-29T22:26:35.453Z,7.05
2023-03-29T22:29:01.900Z,8.23
2023-03-29T22:31:29.611Z,9.55
2023-03-29T22:33:56.150Z,6.28
2023-03-29T22:36:28.789Z,4.47
2023-03-29T22:38:55.973Z,6.28
2023-03-29T22:41:24.816Z,8.60
2023-03-29T22:43:52.547Z,5.70
2023-03-29T22:46:19.365Z,4.93
2023-03-29T22:48:46.522Z,6.30
2023-03-29T22:51:13.136Z,9.20
2023-03-29T22:53:39.631Z,9.10
2023-03-29T22:56:07.468Z,8.18
2023-03-29T22:58:33.842Z,4.43
2023-03-29T23:01:00.999Z,5.27
2023-03-29T23:03:27.376Z,5.20
2023-03-29T23:05:56.244Z,6.65
2023-03-29T23:08:23.473Z,6.07
2023-03-29T23:10:50.500Z,6.70
2023-03-29T23:13:23.877Z,5.60
2023-03-29T23:15:50.794Z,4.70
2023-03-29T23:18:20.884Z,8.43
2023-03-29T23:20:48.562Z,4.32
2023-03-29T23:23:16.039Z,6.93
2023-03-29T23:25:47.432Z,6.97
2023-03-29T23:28:16.749Z,6.20
2023-03-29T23:30:43.292Z,9.93
2023-03-29T23:33:10.340Z,5.70
2023-03-29T23:35:37.548Z,7.00
2023-03-29T23:38:05.428Z,6.90
2023-03-29T23:40:33.055Z,5.07
2023-03-29T23:42:59.690Z,6.18
2023-03-29T23:45:29.298Z,6.70
2023-03-29T23:47:56.963Z,5.30
2023-03-29T23:50:23.549Z,6.40
2023-03-29T23:52:51.319Z,8.90
2023-03-29T23:55:17.791Z,4.05
2023-03-29T23:57:44.149Z,4.95
